sensor_id;sensor_type;location;lat;lon;timestamp;pressure;altitude;pressure_sealevel;temperature;humidity
44127;BME280;29786;50.798;7.302;2022-10-16T00:00:37;98790;;;14.4;100
44127;BME280;29786;50.798;7.302;2022-10-16T00:01:37;98790;;;14.4;100
44127;BME280;29786;50.798;7.302;2022-10-16T00:02:37;98790;;;14.43;100
44127;BME280;29786;50.798;7.302;2022-10-16T00:03:38;98790;;;14.43;100
44127;BME280;29786;50.798;7.302;2022-10-16T00:04:37;98800;;;14.44;100
44127;BME280;29786;50.798;7.302;2022-10-16T00:05:37;98800;;;14.44;100
44127;BME280;29786;50.798;7.302;2022-10-16T00:06:37;98800;;;14.42;100
44127;BME280;29786;50.798;7.302;2022-10-16T00:07:37;98800;;;14.34;100
44127;BME280;29786;50.798;7.302;2022-10-16T00:08:37;98800;;;14.38;100
44127;BME280;29786;50.798;7.302;2022-10-16T00:09:37;98800;;;14.37;100
44127;BME280;29786;50.798;7.302;2022-10-16T00:10:37;98800;;;14.42;100
44127;BME280;29786;50.798;7.302;2022-10-16T00:11:38;98800;;;14.45;100
44127;BME280;29786;50.798;7.302;2022-10-16T00:12:37;98810;;;14.47;100
44127;BME280;29786;50.798;7.302;2022-10-16T00:13:38;98810;;;14.47;100
44127;BME280;29786;50.798;7.302;2022-10-16T00:14:37;98810;;;14.51;100
44127;BME280;29786;50.798;7.302;2022-10-16T00:15:37;98800;;;14.54;100
44127;BME280;29786;50.798;7.302;2022-10-16T00:16:37;98800;;;14.49;100
44127;BME280;29786;50.798;7.302;2022-10-16T00:17:37;98800;;;14.53;100
44127;BME280;29786;50.798;7.302;2022-10-16T00:18:37;98800;;;14.53;100
44127;BME280;29786;50.798;7.302;2022-10-16T00:19:37;98800;;;14.54;100
44127;BME280;29786;50.798;7.302;2022-10-16T00:20:37;98800;;;14.5;100
44127;BME280;29786;50.798;7.302;2022-10-16T00:21:37;98810;;;14.51;100
44127;BME280;29786;50.798;7.302;2022-10-16T00:22:37;98810;;;14.48;100
44127;BME280;29786;50.798;7.302;2022-10-16T00:23:37;98820;;;14.45;100
44127;BME280;29786;50.798;7.302;2022-10-16T00:24:37;98810;;;14.47;100
44127;BME280;29786;50.798;7.302;2022-10-16T00:25:37;98820;;;14.47;100
44127;BME280;29786;50.798;7.302;2022-10-16T00:26:38;98820;;;14.46;100
44127;BME280;29786;50.798;7.302;2022-10-16T00:27:37;98820;;;14.41;100
44127;BME280;29786;50.798;7.302;2022-10-16T00:28:37;98820;;;14.41;100
44127;BME280;29786;50.798;7.302;2022-10-16T00:29:37;98820;;;14.45;100
44127;BME280;29786;50.798;7.302;2022-10-16T00:30:38;98820;;;14.43;100
44127;BME280;29786;50.798;7.302;2022-10-16T00:31:37;98830;;;14.38;100
44127;BME280;29786;50.798;7.302;2022-10-16T00:32:37;98830;;;14.36;100
44127;BME280;29786;50.798;7.302;2022-10-16T00:33:37;98830;;;14.31;100
44127;BME280;29786;50.798;7.302;2022-10-16T00:34:37;98830;;;14.31;100
44127;BME280;29786;50.798;7.302;2022-10-16T00:35:37;98830;;;14.29;100
44127;BME280;29786;50.798;7.302;2022-10-16T00:36:37;98830;;;14.33;100
44127;BME280;29786;50.798;7.302;2022-10-16T00:37:37;98830;;;14.36;100
44127;BME280;29786;50.798;7.302;2022-10-16T00:38:37;98830;;;14.36;100
44127;BME280;29786;50.798;7.302;2022-10-16T00:39:37;98820;;;14.38;100
44127;BME280;29786;50.798;7.302;2022-10-16T00:40:37;98820;;;14.38;100
44127;BME280;29786;50.798;7.302;2022-10-16T00:41:37;98820;;;14.37;100
44127;BME280;29786;50.798;7.302;2022-10-16T00:42:37;98820;;;14.35;100
44127;BME280;29786;50.798;7.302;2022-10-16T00:43:41;98820;;;14.39;100
44127;BME280;29786;50.798;7.302;2022-10-16T00:44:46;98820;;;14.32;100
44127;BME280;29786;50.798;7.302;2022-10-16T00:45:37;98830;;;14.36;100
44127;BME280;29786;50.798;7.302;2022-10-16T00:46:38;98820;;;14.34;100
44127;BME280;29786;50.798;7.302;2022-10-16T00:47:39;98830;;;14.37;100
44127;BME280;29786;50.798;7.302;2022-10-16T00:48:37;98820;;;14.29;100
44127;BME280;29786;50.798;7.302;2022-10-16T00:49:37;98820;;;14.28;100
44127;BME280;29786;50.798;7.302;2022-10-16T00:50:37;98830;;;14.34;100
44127;BME280;29786;50.798;7.302;2022-10-16T00:51:39;98830;;;14.32;100
44127;BME280;29786;50.798;7.302;2022-10-16T00:52:38;98830;;;14.33;100
44127;BME280;29786;50.798;7.302;2022-10-16T00:53:37;98820;;;14.31;100
44127;BME280;29786;50.798;7.302;2022-10-16T00:54:37;98820;;;14.3;100
44127;BME280;29786;50.798;7.302;2022-10-16T00:55:37;98820;;;14.26;100
44127;BME280;29786;50.798;7.302;2022-10-16T00:56:37;98820;;;14.22;100
44127;BME280;29786;50.798;7.302;2022-10-16T00:57:37;98820;;;14.21;100
44127;BME280;29786;50.798;7.302;2022-10-16T00:58:37;98820;;;14.2;100
44127;BME280;29786;50.798;7.302;2022-10-16T00:59:38;98820;;;14.17;100
44127;BME280;29786;50.798;7.302;2022-10-16T01:00:37;98820;;;14.14;100
44127;BME280;29786;50.798;7.302;2022-10-16T01:01:37;98820;;;14.17;100
44127;BME280;29786;50.798;7.302;2022-10-16T01:02:37;98820;;;14.24;100
44127;BME280;29786;50.798;7.302;2022-10-16T01:03:37;98820;;;14.27;100
44127;BME280;29786;50.798;7.302;2022-10-16T01:04:39;98820;;;14.28;100
44127;BME280;29786;50.798;7.302;2022-10-16T01:05:39;98820;;;14.3;100
44127;BME280;29786;50.798;7.302;2022-10-16T01:06:41;98830;;;14.3;100
44127;BME280;29786;50.798;7.302;2022-10-16T01:07:41;98830;;;14.19;100
44127;BME280;29786;50.798;7.302;2022-10-16T01:08:39;98830;;;14.17;100
44127;BME280;29786;50.798;7.302;2022-10-16T01:09:40;98830;;;14.2;100
44127;BME280;29786;50.798;7.302;2022-10-16T01:10:39;98830;;;14.18;100
44127;BME280;29786;50.798;7.302;2022-10-16T01:11:40;98830;;;14.12;100
44127;BME280;29786;50.798;7.302;2022-10-16T01:12:39;98830;;;14.13;100
44127;BME280;29786;50.798;7.302;2022-10-16T01:13:38;98830;;;14.14;100
44127;BME280;29786;50.798;7.302;2022-10-16T01:14:40;98830;;;14.11;100
44127;BME280;29786;50.798;7.302;2022-10-16T01:16:12;98830;;;14.06;100
44127;BME280;29786;50.798;7.302;2022-10-16T01:16:47;98830;;;13.97;100
44127;BME280;29786;50.798;7.302;2022-10-16T01:17:39;98830;;;13.94;100
44127;BME280;29786;50.798;7.302;2022-10-16T01:18:38;98840;;;13.93;100
44127;BME280;29786;50.798;7.302;2022-10-16T01:20:39;98840;;;14.16;100
44127;BME280;29786;50.798;7.302;2022-10-16T01:20:44;98840;;;13.93;100
44127;BME280;29786;50.798;7.302;2022-10-16T01:21:39;98830;;;14.14;100
44127;BME280;29786;50.798;7.302;2022-10-16T01:22:38;98830;;;14.16;100
44127;BME280;29786;50.798;7.302;2022-10-16T01:23:43;98830;;;14.17;100
44127;BME280;29786;50.798;7.302;2022-10-16T01:24:38;98830;;;14.15;100
44127;BME280;29786;50.798;7.302;2022-10-16T01:26:42;98830;;;14.09;100
44127;BME280;29786;50.798;7.302;2022-10-16T01:27:37;98830;;;13.98;100
44127;BME280;29786;50.798;7.302;2022-10-16T01:28:39;98830;;;13.96;100
44127;BME280;29786;50.798;7.302;2022-10-16T01:29:41;98820;;;13.91;100
44127;BME280;29786;50.798;7.302;2022-10-16T01:30:37;98830;;;13.85;100
44127;BME280;29786;50.798;7.302;2022-10-16T01:31:38;98830;;;13.77;100
44127;BME280;29786;50.798;7.302;2022-10-16T01:32:46;98830;;;13.73;100
44127;BME280;29786;50.798;7.302;2022-10-16T01:33:39;98840;;;13.66;100
44127;BME280;29786;50.798;7.302;2022-10-16T01:34:38;98830;;;13.69;100
44127;BME280;29786;50.798;7.302;2022-10-16T01:35:38;98830;;;13.62;100
44127;BME280;29786;50.798;7.302;2022-10-16T01:36:39;98830;;;13.58;100
44127;BME280;29786;50.798;7.302;2022-10-16T01:37:39;98840;;;13.53;100
44127;BME280;29786;50.798;7.302;2022-10-16T01:38:38;98840;;;13.51;100
44127;BME280;29786;50.798;7.302;2022-10-16T01:39:38;98840;;;13.49;100
44127;BME280;29786;50.798;7.302;2022-10-16T01:40:37;98840;;;13.47;100
44127;BME280;29786;50.798;7.302;2022-10-16T01:41:39;98840;;;13.46;100
44127;BME280;29786;50.798;7.302;2022-10-16T01:42:39;98840;;;13.44;100
44127;BME280;29786;50.798;7.302;2022-10-16T01:43:38;98840;;;13.39;100
44127;BME280;29786;50.798;7.302;2022-10-16T01:44:37;98830;;;13.35;100
44127;BME280;29786;50.798;7.302;2022-10-16T01:45:37;98830;;;13.31;100
44127;BME280;29786;50.798;7.302;2022-10-16T01:46:38;98820;;;13.31;100
44127;BME280;29786;50.798;7.302;2022-10-16T01:47:37;98830;;;13.26;100
44127;BME280;29786;50.798;7.302;2022-10-16T01:48:37;98830;;;13.26;100
44127;BME280;29786;50.798;7.302;2022-10-16T01:49:37;98840;;;13.29;100
44127;BME280;29786;50.798;7.302;2022-10-16T01:50:37;98850;;;13.26;100
44127;BME280;29786;50.798;7.302;2022-10-16T01:51:37;98850;;;13.24;100
44127;BME280;29786;50.798;7.302;2022-10-16T01:52:39;98850;;;13.18;100
44127;BME280;29786;50.798;7.302;2022-10-16T01:53:37;98850;;;13.19;100
44127;BME280;29786;50.798;7.302;2022-10-16T01:54:37;98850;;;13.2;100
44127;BME280;29786;50.798;7.302;2022-10-16T01:55:38;98840;;;13.2;100
44127;BME280;29786;50.798;7.302;2022-10-16T01:56:37;98840;;;13.25;100
44127;BME280;29786;50.798;7.302;2022-10-16T01:57:37;98840;;;13.27;100
44127;BME280;29786;50.798;7.302;2022-10-16T01:58:40;98840;;;13.23;100
44127;BME280;29786;50.798;7.302;2022-10-16T01:59:42;98840;;;13.19;100
44127;BME280;29786;50.798;7.302;2022-10-16T02:00:38;98850;;;13.15;100
44127;BME280;29786;50.798;7.302;2022-10-16T02:01:38;98850;;;13.17;100
44127;BME280;29786;50.798;7.302;2022-10-16T02:02:37;98850;;;13.2;100
44127;BME280;29786;50.798;7.302;2022-10-16T02:03:37;98850;;;13.21;100
44127;BME280;29786;50.798;7.302;2022-10-16T02:04:38;98850;;;13.24;100
44127;BME280;29786;50.798;7.302;2022-10-16T02:05:38;98850;;;13.23;100
44127;BME280;29786;50.798;7.302;2022-10-16T02:06:37;98840;;;13.22;100
44127;BME280;29786;50.798;7.302;2022-10-16T02:07:37;98850;;;13.22;100
44127;BME280;29786;50.798;7.302;2022-10-16T02:08:37;98850;;;13.31;100
44127;BME280;29786;50.798;7.302;2022-10-16T02:09:37;98850;;;13.34;100
44127;BME280;29786;50.798;7.302;2022-10-16T02:10:37;98850;;;13.35;100
44127;BME280;29786;50.798;7.302;2022-10-16T02:11:37;98840;;;13.37;100
44127;BME280;29786;50.798;7.302;2022-10-16T02:12:38;98840;;;13.38;100
44127;BME280;29786;50.798;7.302;2022-10-16T02:13:38;98840;;;13.47;100
44127;BME280;29786;50.798;7.302;2022-10-16T02:14:37;98840;;;13.49;100
44127;BME280;29786;50.798;7.302;2022-10-16T02:15:37;98840;;;13.44;100
44127;BME280;29786;50.798;7.302;2022-10-16T02:16:38;98850;;;13.49;100
44127;BME280;29786;50.798;7.302;2022-10-16T02:17:37;98840;;;13.44;100
44127;BME280;29786;50.798;7.302;2022-10-16T02:18:37;98840;;;13.45;100
44127;BME280;29786;50.798;7.302;2022-10-16T02:19:37;98840;;;13.45;100
44127;BME280;29786;50.798;7.302;2022-10-16T02:20:41;98840;;;13.42;100
44127;BME280;29786;50.798;7.302;2022-10-16T02:21:40;98840;;;13.48;100
44127;BME280;29786;50.798;7.302;2022-10-16T02:22:39;98840;;;13.5;100
44127;BME280;29786;50.798;7.302;2022-10-16T02:24:58;98840;;;13.69;100
44127;BME280;29786;50.798;7.302;2022-10-16T02:25:37;98850;;;13.7;100
44127;BME280;29786;50.798;7.302;2022-10-16T02:26:40;98850;;;13.69;100
44127;BME280;29786;50.798;7.302;2022-10-16T02:27:43;98850;;;13.69;100
44127;BME280;29786;50.798;7.302;2022-10-16T02:28:40;98850;;;13.71;100
44127;BME280;29786;50.798;7.302;2022-10-16T02:29:39;98850;;;13.7;100
44127;BME280;29786;50.798;7.302;2022-10-16T02:30:40;98850;;;13.65;100
44127;BME280;29786;50.798;7.302;2022-10-16T02:31:38;98850;;;13.63;100
44127;BME280;29786;50.798;7.302;2022-10-16T02:32:39;98860;;;13.61;100
44127;BME280;29786;50.798;7.302;2022-10-16T02:33:37;98860;;;13.6;100
44127;BME280;29786;50.798;7.302;2022-10-16T02:34:37;98860;;;13.57;100
44127;BME280;29786;50.798;7.302;2022-10-16T02:35:37;98850;;;13.53;100
44127;BME280;29786;50.798;7.302;2022-10-16T02:36:37;98840;;;13.45;100
44127;BME280;29786;50.798;7.302;2022-10-16T02:37:37;98840;;;13.48;100
44127;BME280;29786;50.798;7.302;2022-10-16T02:38:37;98840;;;13.45;100
44127;BME280;29786;50.798;7.302;2022-10-16T02:39:37;98840;;;13.48;100
44127;BME280;29786;50.798;7.302;2022-10-16T02:40:37;98840;;;13.5;100
44127;BME280;29786;50.798;7.302;2022-10-16T02:41:37;98850;;;13.53;100
44127;BME280;29786;50.798;7.302;2022-10-16T02:42:38;98850;;;13.58;100
44127;BME280;29786;50.798;7.302;2022-10-16T02:43:37;98850;;;13.66;100
44127;BME280;29786;50.798;7.302;2022-10-16T02:44:37;98850;;;13.72;100
44127;BME280;29786;50.798;7.302;2022-10-16T02:45:37;98850;;;13.69;100
44127;BME280;29786;50.798;7.302;2022-10-16T02:46:37;98850;;;13.67;100
44127;BME280;29786;50.798;7.302;2022-10-16T02:47:37;98860;;;13.68;100
44127;BME280;29786;50.798;7.302;2022-10-16T02:48:37;98860;;;13.67;100
44127;BME280;29786;50.798;7.302;2022-10-16T02:49:37;98870;;;13.65;100
44127;BME280;29786;50.798;7.302;2022-10-16T02:50:37;98870;;;13.68;100
44127;BME280;29786;50.798;7.302;2022-10-16T02:51:37;98870;;;13.64;100
44127;BME280;29786;50.798;7.302;2022-10-16T02:52:37;98870;;;13.57;100
44127;BME280;29786;50.798;7.302;2022-10-16T02:53:37;98870;;;13.61;100
44127;BME280;29786;50.798;7.302;2022-10-16T02:54:37;98870;;;13.62;100
44127;BME280;29786;50.798;7.302;2022-10-16T02:55:37;98870;;;13.62;100
44127;BME280;29786;50.798;7.302;2022-10-16T02:56:37;98860;;;13.65;100
44127;BME280;29786;50.798;7.302;2022-10-16T02:57:37;98850;;;13.64;100
44127;BME280;29786;50.798;7.302;2022-10-16T02:58:37;98850;;;13.68;100
44127;BME280;29786;50.798;7.302;2022-10-16T02:59:37;98850;;;13.65;100
44127;BME280;29786;50.798;7.302;2022-10-16T03:00:37;98850;;;13.65;100
44127;BME280;29786;50.798;7.302;2022-10-16T03:01:37;98860;;;13.65;100
44127;BME280;29786;50.798;7.302;2022-10-16T03:02:37;98850;;;13.7;100
44127;BME280;29786;50.798;7.302;2022-10-16T03:03:37;98850;;;13.73;100
44127;BME280;29786;50.798;7.302;2022-10-16T03:04:37;98850;;;13.73;100
44127;BME280;29786;50.798;7.302;2022-10-16T03:05:37;98860;;;13.75;100
44127;BME280;29786;50.798;7.302;2022-10-16T03:06:37;98860;;;13.75;100
44127;BME280;29786;50.798;7.302;2022-10-16T03:07:37;98860;;;13.72;100
44127;BME280;29786;50.798;7.302;2022-10-16T03:08:37;98860;;;13.71;100
44127;BME280;29786;50.798;7.302;2022-10-16T03:09:37;98860;;;13.64;100
44127;BME280;29786;50.798;7.302;2022-10-16T03:10:37;98860;;;13.65;100
44127;BME280;29786;50.798;7.302;2022-10-16T03:11:37;98860;;;13.68;100
44127;BME280;29786;50.798;7.302;2022-10-16T03:12:37;98860;;;13.63;100
44127;BME280;29786;50.798;7.302;2022-10-16T03:13:37;98860;;;13.67;100
44127;BME280;29786;50.798;7.302;2022-10-16T03:14:37;98860;;;13.77;100
44127;BME280;29786;50.798;7.302;2022-10-16T03:15:37;98860;;;13.74;100
44127;BME280;29786;50.798;7.302;2022-10-16T03:16:37;98860;;;13.7;100
44127;BME280;29786;50.798;7.302;2022-10-16T03:17:37;98850;;;13.72;100
44127;BME280;29786;50.798;7.302;2022-10-16T03:18:37;98850;;;13.76;100
44127;BME280;29786;50.798;7.302;2022-10-16T03:19:37;98860;;;13.78;100
44127;BME280;29786;50.798;7.302;2022-10-16T03:20:37;98850;;;13.7;100
44127;BME280;29786;50.798;7.302;2022-10-16T03:21:37;98850;;;13.66;100
44127;BME280;29786;50.798;7.302;2022-10-16T03:22:37;98850;;;13.6;100
44127;BME280;29786;50.798;7.302;2022-10-16T03:23:37;98850;;;13.59;100
44127;BME280;29786;50.798;7.302;2022-10-16T03:24:37;98850;;;13.64;100
44127;BME280;29786;50.798;7.302;2022-10-16T03:25:37;98850;;;13.63;100
44127;BME280;29786;50.798;7.302;2022-10-16T03:26:37;98830;;;13.67;100
44127;BME280;29786;50.798;7.302;2022-10-16T03:27:37;98840;;;13.68;100
44127;BME280;29786;50.798;7.302;2022-10-16T03:28:37;98850;;;13.69;100
44127;BME280;29786;50.798;7.302;2022-10-16T03:29:37;98860;;;13.64;100
44127;BME280;29786;50.798;7.302;2022-10-16T03:30:37;98860;;;13.69;100
44127;BME280;29786;50.798;7.302;2022-10-16T03:31:37;98860;;;13.65;100
44127;BME280;29786;50.798;7.302;2022-10-16T03:32:37;98860;;;13.67;100
44127;BME280;29786;50.798;7.302;2022-10-16T03:33:37;98850;;;13.67;100
44127;BME280;29786;50.798;7.302;2022-10-16T03:34:37;98860;;;13.62;100
44127;BME280;29786;50.798;7.302;2022-10-16T03:35:37;98860;;;13.59;100
44127;BME280;29786;50.798;7.302;2022-10-16T03:36:37;98860;;;13.6;100
44127;BME280;29786;50.798;7.302;2022-10-16T03:37:37;98860;;;13.61;100
44127;BME280;29786;50.798;7.302;2022-10-16T03:38:37;98860;;;13.67;100
44127;BME280;29786;50.798;7.302;2022-10-16T03:39:37;98870;;;13.68;100
44127;BME280;29786;50.798;7.302;2022-10-16T03:40:37;98870;;;13.7;100
44127;BME280;29786;50.798;7.302;2022-10-16T03:41:37;98860;;;13.63;100
44127;BME280;29786;50.798;7.302;2022-10-16T03:42:37;98860;;;13.64;100
44127;BME280;29786;50.798;7.302;2022-10-16T03:43:37;98860;;;13.65;100
44127;BME280;29786;50.798;7.302;2022-10-16T03:44:37;98860;;;13.69;100
44127;BME280;29786;50.798;7.302;2022-10-16T03:45:37;98850;;;13.71;100
44127;BME280;29786;50.798;7.302;2022-10-16T03:46:37;98850;;;13.7;100
44127;BME280;29786;50.798;7.302;2022-10-16T03:47:37;98850;;;13.68;100
44127;BME280;29786;50.798;7.302;2022-10-16T03:48:37;98860;;;13.66;100
44127;BME280;29786;50.798;7.302;2022-10-16T03:49:37;98860;;;13.69;100
44127;BME280;29786;50.798;7.302;2022-10-16T03:50:37;98860;;;13.66;100
44127;BME280;29786;50.798;7.302;2022-10-16T03:51:37;98860;;;13.66;100
44127;BME280;29786;50.798;7.302;2022-10-16T03:52:37;98850;;;13.64;100
44127;BME280;29786;50.798;7.302;2022-10-16T03:53:37;98860;;;13.67;100
44127;BME280;29786;50.798;7.302;2022-10-16T03:54:37;98850;;;13.64;100
44127;BME280;29786;50.798;7.302;2022-10-16T03:55:37;98850;;;13.68;100
44127;BME280;29786;50.798;7.302;2022-10-16T03:56:37;98850;;;13.74;100
44127;BME280;29786;50.798;7.302;2022-10-16T03:57:37;98850;;;13.67;100
44127;BME280;29786;50.798;7.302;2022-10-16T03:58:37;98850;;;13.62;100
44127;BME280;29786;50.798;7.302;2022-10-16T03:59:37;98850;;;13.61;100
44127;BME280;29786;50.798;7.302;2022-10-16T04:00:41;98860;;;13.62;100
44127;BME280;29786;50.798;7.302;2022-10-16T04:01:37;98860;;;13.63;100
44127;BME280;29786;50.798;7.302;2022-10-16T04:02:37;98860;;;13.6;100
44127;BME280;29786;50.798;7.302;2022-10-16T04:03:37;98870;;;13.61;100
44127;BME280;29786;50.798;7.302;2022-10-16T04:04:37;98870;;;13.61;100
44127;BME280;29786;50.798;7.302;2022-10-16T04:05:37;98870;;;13.56;100
44127;BME280;29786;50.798;7.302;2022-10-16T04:06:37;98880;;;13.54;100
44127;BME280;29786;50.798;7.302;2022-10-16T04:07:37;98880;;;13.55;100
44127;BME280;29786;50.798;7.302;2022-10-16T04:08:37;98880;;;13.53;100
44127;BME280;29786;50.798;7.302;2022-10-16T04:09:37;98890;;;13.68;100
44127;BME280;29786;50.798;7.302;2022-10-16T04:12:17;98900;;;13.66;100
44127;BME280;29786;50.798;7.302;2022-10-16T04:12:37;98900;;;13.74;100
44127;BME280;29786;50.798;7.302;2022-10-16T04:13:37;98900;;;13.71;100
44127;BME280;29786;50.798;7.302;2022-10-16T04:14:37;98900;;;13.67;100
44127;BME280;29786;50.798;7.302;2022-10-16T04:15:37;98900;;;13.63;100
44127;BME280;29786;50.798;7.302;2022-10-16T04:16:37;98900;;;13.69;100
44127;BME280;29786;50.798;7.302;2022-10-16T04:17:37;98890;;;13.69;100
44127;BME280;29786;50.798;7.302;2022-10-16T04:18:37;98900;;;13.67;100
44127;BME280;29786;50.798;7.302;2022-10-16T04:19:37;98900;;;13.73;100
44127;BME280;29786;50.798;7.302;2022-10-16T04:20:37;98900;;;13.81;100
44127;BME280;29786;50.798;7.302;2022-10-16T04:21:37;98900;;;13.86;100
44127;BME280;29786;50.798;7.302;2022-10-16T04:22:37;98900;;;13.93;100
44127;BME280;29786;50.798;7.302;2022-10-16T04:23:37;98900;;;13.89;100
44127;BME280;29786;50.798;7.302;2022-10-16T04:24:37;98900;;;13.88;100
44127;BME280;29786;50.798;7.302;2022-10-16T04:25:37;98900;;;13.88;100
44127;BME280;29786;50.798;7.302;2022-10-16T04:26:37;98910;;;13.86;100
44127;BME280;29786;50.798;7.302;2022-10-16T04:27:37;98900;;;13.83;100
44127;BME280;29786;50.798;7.302;2022-10-16T04:28:37;98910;;;13.89;100
44127;BME280;29786;50.798;7.302;2022-10-16T04:29:37;98900;;;13.93;100
44127;BME280;29786;50.798;7.302;2022-10-16T04:30:38;98900;;;13.85;100
44127;BME280;29786;50.798;7.302;2022-10-16T04:31:37;98890;;;13.82;100
44127;BME280;29786;50.798;7.302;2022-10-16T04:32:37;98890;;;13.77;100
44127;BME280;29786;50.798;7.302;2022-10-16T04:33:37;98880;;;13.73;100
44127;BME280;29786;50.798;7.302;2022-10-16T04:34:38;98880;;;13.7;100
44127;BME280;29786;50.798;7.302;2022-10-16T04:35:37;98880;;;13.74;100
44127;BME280;29786;50.798;7.302;2022-10-16T04:36:37;98890;;;13.75;100
44127;BME280;29786;50.798;7.302;2022-10-16T04:37:37;98890;;;13.74;100
44127;BME280;29786;50.798;7.302;2022-10-16T04:38:37;98890;;;13.77;100
44127;BME280;29786;50.798;7.302;2022-10-16T04:39:37;98900;;;13.76;100
44127;BME280;29786;50.798;7.302;2022-10-16T04:40:37;98900;;;13.73;100
44127;BME280;29786;50.798;7.302;2022-10-16T04:41:37;98910;;;13.79;100
44127;BME280;29786;50.798;7.302;2022-10-16T04:42:37;98910;;;13.76;100
44127;BME280;29786;50.798;7.302;2022-10-16T04:43:37;98910;;;13.71;100
44127;BME280;29786;50.798;7.302;2022-10-16T04:44:37;98910;;;13.84;100
44127;BME280;29786;50.798;7.302;2022-10-16T04:45:37;98910;;;13.88;100
44127;BME280;29786;50.798;7.302;2022-10-16T04:46:37;98910;;;13.91;100
44127;BME280;29786;50.798;7.302;2022-10-16T04:47:37;98910;;;13.87;100
44127;BME280;29786;50.798;7.302;2022-10-16T04:48:37;98920;;;13.84;100
44127;BME280;29786;50.798;7.302;2022-10-16T04:49:37;98920;;;13.85;100
44127;BME280;29786;50.798;7.302;2022-10-16T04:50:37;98910;;;13.91;100
44127;BME280;29786;50.798;7.302;2022-10-16T04:51:37;98910;;;13.95;100
44127;BME280;29786;50.798;7.302;2022-10-16T04:52:37;98920;;;13.97;100
44127;BME280;29786;50.798;7.302;2022-10-16T04:53:37;98920;;;13.98;100
44127;BME280;29786;50.798;7.302;2022-10-16T04:54:37;98920;;;13.95;100
44127;BME280;29786;50.798;7.302;2022-10-16T04:55:37;98920;;;13.94;100
44127;BME280;29786;50.798;7.302;2022-10-16T04:56:37;98920;;;13.92;100
44127;BME280;29786;50.798;7.302;2022-10-16T04:57:37;98920;;;13.9;100
44127;BME280;29786;50.798;7.302;2022-10-16T04:58:37;98920;;;13.88;100
44127;BME280;29786;50.798;7.302;2022-10-16T04:59:37;98920;;;13.98;100
44127;BME280;29786;50.798;7.302;2022-10-16T05:00:37;98930;;;13.96;100
44127;BME280;29786;50.798;7.302;2022-10-16T05:01:37;98920;;;13.93;100
44127;BME280;29786;50.798;7.302;2022-10-16T05:02:37;98920;;;13.89;100
44127;BME280;29786;50.798;7.302;2022-10-16T05:03:37;98920;;;13.94;100
44127;BME280;29786;50.798;7.302;2022-10-16T05:04:37;98920;;;14.03;100
44127;BME280;29786;50.798;7.302;2022-10-16T05:05:41;98920;;;14.05;100
44127;BME280;29786;50.798;7.302;2022-10-16T05:06:37;98920;;;14.03;100
44127;BME280;29786;50.798;7.302;2022-10-16T05:07:37;98920;;;14.01;100
44127;BME280;29786;50.798;7.302;2022-10-16T05:08:37;98910;;;14.02;100
44127;BME280;29786;50.798;7.302;2022-10-16T05:09:37;98910;;;14.01;100
44127;BME280;29786;50.798;7.302;2022-10-16T05:10:37;98920;;;13.97;100
44127;BME280;29786;50.798;7.302;2022-10-16T05:11:37;98920;;;13.94;100
44127;BME280;29786;50.798;7.302;2022-10-16T05:12:37;98920;;;13.98;100
44127;BME280;29786;50.798;7.302;2022-10-16T05:13:37;98920;;;14;100
44127;BME280;29786;50.798;7.302;2022-10-16T05:14:37;98930;;;13.98;100
44127;BME280;29786;50.798;7.302;2022-10-16T05:15:37;98930;;;14.01;100
44127;BME280;29786;50.798;7.302;2022-10-16T05:16:37;98940;;;13.96;100
44127;BME280;29786;50.798;7.302;2022-10-16T05:17:37;98940;;;13.99;100
44127;BME280;29786;50.798;7.302;2022-10-16T05:18:37;98940;;;13.98;100
44127;BME280;29786;50.798;7.302;2022-10-16T05:19:37;98940;;;13.95;100
44127;BME280;29786;50.798;7.302;2022-10-16T05:20:37;98940;;;13.99;100
44127;BME280;29786;50.798;7.302;2022-10-16T05:21:37;98940;;;14.01;100
44127;BME280;29786;50.798;7.302;2022-10-16T05:22:37;98940;;;13.96;100
44127;BME280;29786;50.798;7.302;2022-10-16T05:23:37;98940;;;13.95;100
44127;BME280;29786;50.798;7.302;2022-10-16T05:24:37;98940;;;13.96;100
44127;BME280;29786;50.798;7.302;2022-10-16T05:25:37;98940;;;14.04;100
44127;BME280;29786;50.798;7.302;2022-10-16T05:26:37;98940;;;13.99;100
44127;BME280;29786;50.798;7.302;2022-10-16T05:27:37;98940;;;14;100
44127;BME280;29786;50.798;7.302;2022-10-16T05:28:37;98940;;;14.05;100
44127;BME280;29786;50.798;7.302;2022-10-16T05:29:37;98940;;;14.01;100
44127;BME280;29786;50.798;7.302;2022-10-16T05:30:37;98930;;;14;100
44127;BME280;29786;50.798;7.302;2022-10-16T05:31:37;98930;;;14.02;100
44127;BME280;29786;50.798;7.302;2022-10-16T05:32:37;98930;;;14;100
44127;BME280;29786;50.798;7.302;2022-10-16T05:33:37;98930;;;13.91;100
44127;BME280;29786;50.798;7.302;2022-10-16T05:34:37;98940;;;13.92;100
44127;BME280;29786;50.798;7.302;2022-10-16T05:35:37;98940;;;13.91;100
44127;BME280;29786;50.798;7.302;2022-10-16T05:36:37;98940;;;13.88;100
44127;BME280;29786;50.798;7.302;2022-10-16T05:37:37;98930;;;13.87;100
44127;BME280;29786;50.798;7.302;2022-10-16T05:38:37;98930;;;13.88;100
44127;BME280;29786;50.798;7.302;2022-10-16T05:39:37;98940;;;13.92;100
44127;BME280;29786;50.798;7.302;2022-10-16T05:40:37;98940;;;13.86;100
44127;BME280;29786;50.798;7.302;2022-10-16T05:41:37;98940;;;13.91;100
44127;BME280;29786;50.798;7.302;2022-10-16T05:42:37;98950;;;13.98;100
44127;BME280;29786;50.798;7.302;2022-10-16T05:43:37;98950;;;13.95;100